Time;durP1;ratioP1;P1;durP2;ratioP2;P2;SDS_P1;SDS_P2;PMS_P1;PMS_P2;Temp;Humidity;BMP_temperature;BMP_pressure;BME280_temperature;BME280_humidity;BME280_pressure;Samples;Min_cycle;Max_cycle;Signal;HPM_P1;HPM_P2
2023/07/07 00:00:43;;;;;;;0.08;0.08;;;15.30;99.90;;;;;;5148717;27;20043;-68
2023/07/07 00:03:09;;;;;;;1.88;0.63;;;15.30;99.90;;;;;;5147850;27;20038;-68
2023/07/07 00:05:35;;;;;;;0.03;0.03;;;15.20;99.90;;;;;;5139148;27;20043;-68
2023/07/07 00:08:01;;;;;;;2.40;1.00;;;15.20;99.90;;;;;;5149627;27;20043;-68
2023/07/07 00:10:26;;;;;;;0.10;0.10;;;15.10;99.90;;;;;;5149837;27;20047;-68
2023/07/07 00:12:52;;;;;;;0.00;0.00;;;15.10;99.90;;;;;;5138530;27;20454;-68
2023/07/07 00:15:18;;;;;;;0.28;0.28;;;15.00;99.90;;;;;;5137158;27;20058;-67
2023/07/07 00:17:47;;;;;;;0.32;0.32;;;15.00;99.90;;;;;;5147389;27;20390;-68
2023/07/07 00:20:14;;;;;;;0.15;0.15;;;14.90;99.90;;;;;;5144618;27;20103;-68
2023/07/07 00:22:40;;;;;;;0.00;0.00;;;14.90;99.90;;;;;;5128134;27;20066;-67
2023/07/07 00:25:07;;;;;;;0.00;0.00;;;14.80;99.90;;;;;;5146441;27;20122;-68
2023/07/07 00:27:34;;;;;;;0.10;0.10;;;14.80;99.90;;;;;;5146965;27;20038;-68
2023/07/07 00:30:00;;;;;;;0.30;0.30;;;14.80;99.90;;;;;;5147381;27;20070;-68
2023/07/07 00:32:25;;;;;;;0.10;0.10;;;14.80;99.90;;;;;;5149238;27;20089;-67
2023/07/07 00:34:51;;;;;;;0.00;0.00;;;14.80;99.90;;;;;;5121991;27;20608;-68
2023/07/07 00:37:17;;;;;;;0.00;0.00;;;14.80;99.90;;;;;;5128829;27;20371;-68
2023/07/07 00:39:42;;;;;;;0.00;0.00;;;14.80;99.90;;;;;;5126931;27;20428;-68
2023/07/07 00:42:10;;;;;;;0.00;0.00;;;14.80;99.90;;;;;;5140630;27;20039;-68
2023/07/07 00:45:13;;;;;;;0.20;0.20;;;14.80;99.90;;;;;;5128909;27;20043;-68
2023/07/07 00:47:49;;;;;;;0.20;0.20;;;14.80;99.90;;;;;;5120685;27;20041;-68
2023/07/07 00:50:17;;;;;;;1.00;0.82;;;14.70;99.90;;;;;;5144273;27;20067;-67
2023/07/07 00:52:44;;;;;;;0.00;0.00;;;14.70;99.90;;;;;;5149641;27;20474;-68
2023/07/07 00:55:33;;;;;;;0.00;0.00;;;14.80;99.90;;;;;;5141670;27;20035;-68
2023/07/07 00:58:05;;;;;;;0.00;0.00;;;14.70;99.90;;;;;;5138524;27;20397;-68
2023/07/07 01:00:32;;;;;;;0.20;0.20;;;14.70;99.90;;;;;;5139584;27;20039;-68
2023/07/07 01:02:59;;;;;;;0.20;0.20;;;14.70;99.90;;;;;;5141948;27;20435;-68
2023/07/07 01:05:29;;;;;;;0.00;0.00;;;14.70;99.90;;;;;;5144064;27;20042;-68
2023/07/07 01:07:59;;;;;;;0.00;0.00;;;14.60;99.90;;;;;;5138949;27;20515;-68
2023/07/07 01:10:25;;;;;;;0.10;0.10;;;14.60;99.90;;;;;;5148262;27;20549;-68
2023/07/07 01:12:51;;;;;;;0.10;0.10;;;14.60;99.90;;;;;;5136528;27;20228;-68
2023/07/07 01:15:16;;;;;;;1.27;0.90;;;14.60;99.90;;;;;;5136674;27;20055;-68
2023/07/07 01:17:48;;;;;;;0.93;0.28;;;14.60;99.90;;;;;;5144407;27;20027;-67
2023/07/07 01:20:41;;;;;;;0.08;0.08;;;14.60;99.90;;;;;;5140725;27;20042;-68
2023/07/07 01:23:39;;;;;;;0.37;0.37;;;14.60;99.90;;;;;;5138617;27;20047;-68
2023/07/07 01:26:22;;;;;;;0.00;0.00;;;14.50;99.90;;;;;;5148085;27;20351;-68
2023/07/07 01:29:14;;;;;;;0.20;0.20;;;14.50;99.90;;;;;;5143911;27;20390;-68
2023/07/07 01:31:47;;;;;;;0.00;0.00;;;14.50;99.90;;;;;;5136389;27;20055;-68
2023/07/07 01:34:15;;;;;;;0.20;0.20;;;14.50;99.90;;;;;;5142997;27;20038;-67
2023/07/07 01:36:41;;;;;;;0.20;0.20;;;14.50;99.90;;;;;;5137889;27;20095;-68
2023/07/07 01:39:07;;;;;;;0.00;0.00;;;14.40;99.90;;;;;;5144420;27;20043;-68
2023/07/07 01:41:43;;;;;;;0.00;0.00;;;14.40;99.90;;;;;;5147040;27;20047;-67
2023/07/07 01:44:27;;;;;;;0.00;0.00;;;14.40;99.90;;;;;;5145156;27;20038;-68
2023/07/07 01:47:06;;;;;;;0.10;0.10;;;14.40;99.90;;;;;;5141849;27;20065;-68
2023/07/07 01:49:58;;;;;;;0.03;0.03;;;14.40;99.90;;;;;;5140539;27;20051;-67
2023/07/07 01:52:31;;;;;;;0.05;0.05;;;14.40;99.90;;;;;;5143835;27;20074;-68
2023/07/07 01:55:03;;;;;;;0.00;0.00;;;14.30;99.90;;;;;;5148078;27;20043;-68
2023/07/07 01:57:30;;;;;;;0.30;0.30;;;14.10;99.90;;;;;;5126288;27;20486;-68
2023/07/07 01:59:56;;;;;;;0.03;0.03;;;14.10;99.90;;;;;;5141717;27;20055;-68
2023/07/07 02:02:23;;;;;;;0.20;0.20;;;14.10;99.90;;;;;;5143970;27;20402;-68
2023/07/07 02:04:49;;;;;;;0.00;0.00;;;14.20;99.90;;;;;;5134895;27;20047;-68
2023/07/07 02:07:15;;;;;;;0.13;0.13;;;14.20;99.90;;;;;;5147537;27;20043;-68
2023/07/07 02:09:40;;;;;;;0.52;0.52;;;14.00;99.90;;;;;;5150902;27;20122;-68
2023/07/07 02:12:06;;;;;;;0.00;0.00;;;14.10;99.90;;;;;;5144820;27;20091;-68
2023/07/07 02:14:32;;;;;;;0.47;0.38;;;14.00;99.90;;;;;;5151100;27;20371;-67
2023/07/07 02:16:58;;;;;;;0.65;0.65;;;14.10;99.90;;;;;;5144721;27;20042;-68
2023/07/07 02:19:24;;;;;;;0.30;0.30;;;14.00;99.90;;;;;;5151315;27;20067;-68
2023/07/07 02:21:49;;;;;;;0.00;0.00;;;14.00;99.90;;;;;;5141829;27;20039;-68
2023/07/07 02:24:15;;;;;;;0.00;0.00;;;14.00;99.90;;;;;;5132431;27;20078;-68
2023/07/07 02:26:40;;;;;;;0.10;0.10;;;14.00;99.90;;;;;;5134041;27;20050;-68
2023/07/07 02:29:06;;;;;;;0.00;0.00;;;14.00;99.90;;;;;;5143882;27;20042;-68
2023/07/07 02:31:32;;;;;;;0.60;0.60;;;14.00;99.90;;;;;;5143804;27;20053;-68
2023/07/07 02:33:57;;;;;;;0.10;0.10;;;14.00;99.90;;;;;;5132768;27;20058;-68
2023/07/07 02:36:24;;;;;;;0.10;0.10;;;14.00;99.90;;;;;;5147369;27;20038;-68
2023/07/07 02:38:52;;;;;;;0.10;0.10;;;13.80;99.90;;;;;;5145518;27;20398;-68
2023/07/07 02:41:19;;;;;;;0.00;0.00;;;13.80;99.90;;;;;;5132427;27;20046;-68
2023/07/07 02:43:45;;;;;;;0.00;0.00;;;13.80;99.90;;;;;;5152511;27;20043;-67
2023/07/07 02:46:10;;;;;;;0.22;0.22;;;13.80;99.90;;;;;;5142470;27;20049;-68
2023/07/07 02:48:36;;;;;;;1.30;0.65;;;13.50;99.90;;;;;;5147876;27;20465;-67
2023/07/07 02:51:04;;;;;;;0.15;0.15;;;13.60;99.90;;;;;;5121813;27;20083;-68
2023/07/07 02:53:33;;;;;;;0.43;0.43;;;13.60;99.90;;;;;;5150252;27;20049;-68
2023/07/07 02:55:59;;;;;;;0.60;0.60;;;13.40;99.90;;;;;;5128220;27;20031;-68
2023/07/07 02:58:25;;;;;;;1.20;1.10;;;13.40;99.90;;;;;;5137866;27;20050;-67
2023/07/07 03:00:51;;;;;;;0.28;0.28;;;13.50;99.90;;;;;;5145956;27;20121;-68
2023/07/07 03:03:18;;;;;;;0.38;0.38;;;13.50;99.90;;;;;;5146555;27;20050;-67
2023/07/07 03:05:44;;;;;;;0.40;0.40;;;13.50;99.90;;;;;;5146149;27;20073;-68
2023/07/07 03:08:11;;;;;;;0.00;0.00;;;13.60;99.90;;;;;;5150602;27;20070;-67
2023/07/07 03:10:38;;;;;;;0.17;0.17;;;13.50;99.90;;;;;;5152056;27;20039;-68
2023/07/07 03:13:04;;;;;;;0.73;0.73;;;13.30;99.90;;;;;;5142756;27;20129;-68
2023/07/07 03:15:50;;;;;;;0.30;0.30;;;13.30;99.90;;;;;;5141580;27;20096;-68
2023/07/07 03:18:15;;;;;;;0.00;0.00;;;13.30;99.90;;;;;;5143825;27;20424;-67
2023/07/07 03:20:49;;;;;;;0.00;0.00;;;13.40;99.90;;;;;;5146681;27;20050;-68
2023/07/07 03:23:15;;;;;;;0.03;0.03;;;13.40;99.90;;;;;;5135449;27;20078;-67
2023/07/07 03:25:41;;;;;;;0.20;0.20;;;13.40;99.90;;;;;;5149250;27;20043;-68
2023/07/07 03:28:07;;;;;;;0.10;0.10;;;13.40;99.90;;;;;;5142714;27;20807;-67
2023/07/07 03:30:34;;;;;;;1.95;0.52;;;13.30;99.90;;;;;;5149330;27;20126;-68
2023/07/07 03:33:00;;;;;;;0.10;0.10;;;13.30;99.90;;;;;;5127427;27;20047;-68
2023/07/07 03:35:26;;;;;;;0.20;0.20;;;13.40;99.90;;;;;;5144201;27;20827;-68
2023/07/07 03:37:52;;;;;;;0.45;0.45;;;13.40;99.90;;;;;;5149169;27;20478;-68
2023/07/07 03:40:17;;;;;;;0.20;0.20;;;13.40;99.90;;;;;;5121186;27;20069;-67
2023/07/07 03:42:43;;;;;;;0.35;0.35;;;13.50;99.90;;;;;;5148036;27;20591;-68
2023/07/07 03:45:10;;;;;;;0.10;0.10;;;13.50;99.90;;;;;;5143934;27;20050;-68
2023/07/07 03:47:35;;;;;;;0.90;0.52;;;13.50;99.90;;;;;;5121428;27;20371;-68
2023/07/07 03:50:01;;;;;;;1.10;0.90;;;13.50;99.90;;;;;;5148679;27;20054;-68
2023/07/07 03:52:27;;;;;;;0.32;0.30;;;13.60;99.90;;;;;;5143825;27;20043;-68
2023/07/07 03:54:53;;;;;;;0.45;0.45;;;13.60;99.90;;;;;;5123319;27;20042;-68
2023/07/07 03:57:18;;;;;;;0.03;0.03;;;13.70;99.90;;;;;;5149398;27;20104;-68
2023/07/07 03:59:44;;;;;;;0.00;0.00;;;13.70;99.90;;;;;;5132909;27;20474;-68
2023/07/07 04:02:09;;;;;;;0.35;0.35;;;13.80;99.90;;;;;;5143935;27;20054;-68
2023/07/07 04:04:35;;;;;;;0.45;0.40;;;13.80;99.90;;;;;;5146738;27;20042;-68
2023/07/07 04:07:01;;;;;;;0.00;0.00;;;13.80;99.90;;;;;;5139654;27;20054;-68
2023/07/07 04:09:26;;;;;;;0.20;0.20;;;13.90;99.90;;;;;;5149008;27;20042;-68
2023/07/07 04:11:52;;;;;;;0.43;0.43;;;13.90;99.90;;;;;;5125478;27;20091;-68
2023/07/07 04:14:19;;;;;;;0.40;0.40;;;13.90;99.90;;;;;;5125680;27;20035;-67
2023/07/07 04:16:44;;;;;;;0.55;0.55;;;13.90;99.90;;;;;;5146655;27;20082;-68
2023/07/07 04:19:10;;;;;;;0.20;0.20;;;13.90;99.90;;;;;;5140133;27;20428;-68
2023/07/07 04:21:36;;;;;;;0.03;0.03;;;14.00;99.90;;;;;;5141275;27;20038;-67
2023/07/07 04:24:03;;;;;;;0.55;0.47;;;14.10;99.90;;;;;;5142392;27;20042;-67
2023/07/07 04:26:31;;;;;;;0.05;0.05;;;14.10;99.90;;;;;;5150199;27;20501;-67
2023/07/07 04:28:58;;;;;;;0.32;0.32;;;14.20;99.90;;;;;;5146668;27;20122;-67
2023/07/07 04:31:25;;;;;;;0.13;0.13;;;14.30;99.90;;;;;;5149464;27;20146;-67
2023/07/07 04:33:52;;;;;;;0.40;0.40;;;14.30;99.90;;;;;;5147498;27;20616;-68
2023/07/07 04:36:18;;;;;;;0.00;0.00;;;14.40;99.90;;;;;;5138912;27;20043;-68
2023/07/07 04:38:44;;;;;;;0.20;0.20;;;14.50;99.90;;;;;;5123035;27;20043;-68
2023/07/07 04:41:14;;;;;;;0.55;0.30;;;14.50;99.90;;;;;;5150233;27;20031;-68
2023/07/07 04:43:45;;;;;;;0.70;0.70;;;14.60;99.90;;;;;;5149040;27;20115;-67
2023/07/07 04:46:13;;;;;;;4.88;1.77;;;14.60;99.90;;;;;;5128967;27;20057;-68
2023/07/07 04:48:39;;;;;;;0.20;0.20;;;14.70;99.90;;;;;;5146822;27;20038;-68
2023/07/07 04:51:08;;;;;;;0.68;0.65;;;14.80;99.90;;;;;;5146494;27;20038;-67
2023/07/07 04:53:36;;;;;;;0.10;0.10;;;14.80;99.90;;;;;;5120936;27;20059;-67
2023/07/07 04:56:10;;;;;;;0.13;0.13;;;14.90;99.90;;;;;;5141379;27;20118;-68
2023/07/07 04:58:39;;;;;;;0.73;0.73;;;15.00;99.90;;;;;;5145215;27;20047;-68
2023/07/07 05:01:18;;;;;;;0.05;0.05;;;15.00;99.90;;;;;;5139978;27;20549;-68
2023/07/07 05:03:45;;;;;;;0.00;0.00;;;15.10;99.90;;;;;;5129127;27;20064;-68
2023/07/07 05:06:11;;;;;;;1.75;0.45;;;15.10;99.90;;;;;;5143979;27;20043;-68
2023/07/07 05:08:40;;;;;;;0.20;0.20;;;15.20;99.90;;;;;;5141819;27;20475;-68
2023/07/07 05:11:09;;;;;;;0.00;0.00;;;15.30;99.90;;;;;;5146533;27;20734;-67
2023/07/07 05:13:34;;;;;;;0.28;0.13;;;15.40;99.90;;;;;;5122024;27;20067;-68
2023/07/07 05:16:04;;;;;;;0.00;0.00;;;15.40;99.90;;;;;;5145022;27;20126;-68
2023/07/07 05:18:30;;;;;;;1.17;1.00;;;15.40;99.90;;;;;;5144213;27;20122;-68
2023/07/07 05:20:56;;;;;;;0.10;0.10;;;15.50;99.90;;;;;;5143190;27;20031;-68
2023/07/07 05:23:22;;;;;;;0.10;0.10;;;15.60;99.90;;;;;;5142774;27;20049;-68
2023/07/07 05:25:47;;;;;;;0.17;0.17;;;15.50;99.90;;;;;;5144469;27;20078;-68
2023/07/07 05:28:13;;;;;;;0.00;0.00;;;15.60;99.90;;;;;;5143623;27;20064;-68
2023/07/07 05:30:39;;;;;;;0.00;0.00;;;15.60;99.90;;;;;;5141124;27;20130;-68
2023/07/07 05:33:05;;;;;;;0.22;0.22;;;15.70;99.90;;;;;;5146354;27;20130;-68
2023/07/07 05:35:31;;;;;;;0.10;0.10;;;15.70;99.90;;;;;;5149772;27;20469;-67
2023/07/07 05:37:56;;;;;;;0.22;0.20;;;15.80;99.90;;;;;;5140375;27;20031;-68
2023/07/07 05:40:22;;;;;;;0.00;0.00;;;15.80;99.90;;;;;;5140961;27;20042;-68
2023/07/07 05:42:47;;;;;;;0.10;0.10;;;15.90;99.90;;;;;;5147963;27;20034;-68
2023/07/07 05:45:13;;;;;;;0.65;0.55;;;15.90;99.90;;;;;;5145041;27;20418;-68
2023/07/07 05:47:39;;;;;;;0.43;0.43;;;16.00;99.90;;;;;;5144307;27;20031;-68
2023/07/07 05:50:05;;;;;;;0.28;0.28;;;16.00;99.90;;;;;;5152663;27;20083;-68
2023/07/07 05:52:31;;;;;;;0.10;0.10;;;16.10;99.90;;;;;;5148684;27;20410;-68
2023/07/07 05:54:57;;;;;;;0.10;0.10;;;16.10;99.90;;;;;;5144976;27;20035;-68
2023/07/07 05:57:23;;;;;;;2.00;1.80;;;16.20;99.90;;;;;;5129900;27;20528;-68
2023/07/07 05:59:49;;;;;;;0.22;0.22;;;16.20;99.90;;;;;;5153192;27;20034;-68
2023/07/07 06:02:14;;;;;;;1.75;0.22;;;16.30;99.90;;;;;;5142135;27;20095;-68
2023/07/07 06:04:40;;;;;;;0.52;0.52;;;16.30;99.90;;;;;;5150557;27;20363;-68
2023/07/07 06:07:06;;;;;;;0.40;0.40;;;16.40;99.90;;;;;;5150824;27;20155;-68
2023/07/07 06:09:31;;;;;;;0.77;0.35;;;16.40;99.90;;;;;;5152678;27;20038;-68
2023/07/07 06:11:57;;;;;;;0.43;0.43;;;16.50;99.90;;;;;;5137285;27;20537;-68
2023/07/07 06:14:23;;;;;;;0.10;0.10;;;16.50;99.90;;;;;;5153283;27;20057;-68
2023/07/07 06:16:48;;;;;;;0.10;0.10;;;16.60;99.90;;;;;;5143972;27;20043;-68
2023/07/07 06:19:14;;;;;;;0.10;0.10;;;16.60;99.90;;;;;;5149980;27;20037;-68
2023/07/07 06:21:39;;;;;;;0.05;0.05;;;16.60;99.90;;;;;;5141134;27;20444;-68
2023/07/07 06:24:05;;;;;;;0.68;0.55;;;16.70;99.90;;;;;;5148123;27;20046;-68
2023/07/07 06:26:31;;;;;;;0.20;0.20;;;16.70;99.90;;;;;;5144634;27;20043;-68
2023/07/07 06:28:56;;;;;;;1.88;1.35;;;16.80;99.90;;;;;;5146521;27;20034;-68
2023/07/07 06:31:22;;;;;;;0.32;0.25;;;16.90;99.90;;;;;;5146271;27;20038;-68
2023/07/07 06:33:49;;;;;;;0.45;0.45;;;17.00;99.90;;;;;;5152056;27;20098;-68
2023/07/07 06:36:14;;;;;;;0.00;0.00;;;17.00;99.90;;;;;;5150507;27;20057;-68
2023/07/07 06:38:40;;;;;;;0.00;0.00;;;17.10;99.90;;;;;;5145956;27;20038;-68
2023/07/07 06:41:10;;;;;;;0.20;0.20;;;17.20;99.90;;;;;;5148303;27;20079;-68
2023/07/07 06:43:35;;;;;;;0.32;0.32;;;17.30;99.90;;;;;;5141840;27;20065;-68
2023/07/07 06:46:01;;;;;;;0.25;0.25;;;17.30;99.90;;;;;;5147526;27;20537;-68
2023/07/07 06:48:27;;;;;;;0.50;0.20;;;17.40;99.90;;;;;;5147384;27;20125;-68
2023/07/07 06:50:52;;;;;;;2.28;0.30;;;17.50;99.90;;;;;;5151824;27;20106;-68
2023/07/07 06:53:18;;;;;;;0.10;0.10;;;17.50;99.90;;;;;;5144017;27;20065;-68
2023/07/07 06:55:44;;;;;;;0.13;0.13;;;17.60;99.90;;;;;;5144076;27;20030;-68
2023/07/07 06:58:13;;;;;;;10.50;1.13;;;17.70;99.90;;;;;;5144695;27;20041;-68
2023/07/07 07:00:42;;;;;;;2.92;1.02;;;17.70;99.90;;;;;;5142268;27;20071;-68
2023/07/07 07:03:08;;;;;;;0.00;0.00;;;17.80;99.90;;;;;;5146593;27;20421;-68
2023/07/07 07:05:34;;;;;;;0.00;0.00;;;17.80;99.90;;;;;;5125398;27;20031;-67
2023/07/07 07:07:59;;;;;;;1.35;1.08;;;17.90;99.90;;;;;;5145310;27;20115;-67
2023/07/07 07:10:25;;;;;;;0.00;0.00;;;17.90;99.90;;;;;;5137054;27;20378;-66
2023/07/07 07:12:50;;;;;;;0.10;0.10;;;18.00;99.90;;;;;;5143256;27;20049;-67
2023/07/07 07:15:16;;;;;;;0.80;0.77;;;18.10;99.90;;;;;;5146582;27;20042;-67
2023/07/07 07:17:42;;;;;;;0.08;0.08;;;18.10;99.90;;;;;;5150057;27;20128;-67
2023/07/07 07:20:10;;;;;;;0.22;0.22;;;18.20;99.90;;;;;;5146325;27;20062;-67
2023/07/07 07:22:35;;;;;;;0.00;0.00;;;18.20;99.90;;;;;;5137820;27;20107;-67
2023/07/07 07:25:01;;;;;;;0.00;0.00;;;18.30;99.90;;;;;;5146367;27;20486;-67
2023/07/07 07:27:27;;;;;;;0.10;0.10;;;18.40;99.90;;;;;;5145798;27;20400;-67
2023/07/07 07:29:52;;;;;;;0.40;0.40;;;18.40;99.90;;;;;;5129576;27;20434;-67
2023/07/07 07:32:18;;;;;;;0.30;0.30;;;18.50;99.90;;;;;;5142037;27;20454;-67
2023/07/07 07:34:44;;;;;;;0.10;0.10;;;18.60;99.90;;;;;;5151496;27;20042;-67
2023/07/07 07:37:10;;;;;;;0.03;0.03;;;18.60;99.90;;;;;;5128439;27;20485;-67
2023/07/07 07:39:36;;;;;;;0.22;0.20;;;18.70;99.90;;;;;;5148986;27;20035;-67
2023/07/07 07:42:03;;;;;;;0.10;0.10;;;18.80;99.90;;;;;;5150701;27;20043;-67
2023/07/07 07:44:29;;;;;;;0.20;0.20;;;18.90;99.90;;;;;;5131233;27;20049;-67
2023/07/07 07:46:56;;;;;;;0.43;0.43;;;18.90;99.90;;;;;;5143755;27;20043;-67
2023/07/07 07:49:24;;;;;;;0.00;0.00;;;19.00;99.90;;;;;;5146763;27;20090;-67
2023/07/07 07:51:50;;;;;;;0.22;0.22;;;19.10;99.90;;;;;;5151240;27;20091;-67
2023/07/07 07:54:18;;;;;;;0.00;0.00;;;19.10;99.90;;;;;;5137847;27;20039;-67
2023/07/07 07:56:45;;;;;;;0.00;0.00;;;19.20;99.90;;;;;;5142532;27;20035;-67
2023/07/07 07:59:11;;;;;;;1.45;1.10;;;19.20;99.90;;;;;;5149398;27;20087;-68
2023/07/07 08:01:36;;;;;;;1.15;0.55;;;19.30;99.90;;;;;;5139868;27;20038;-68
2023/07/07 08:04:04;;;;;;;0.30;0.30;;;19.40;99.90;;;;;;5145107;27;20062;-68
2023/07/07 08:06:30;;;;;;;0.00;0.00;;;19.50;99.90;;;;;;5146614;27;20505;-68
2023/07/07 08:08:55;;;;;;;0.10;0.10;;;19.60;99.90;;;;;;5146422;27;20038;-68
2023/07/07 08:11:48;;;;;;;0.20;0.10;;;19.60;99.90;;;;;;5140207;27;20054;-68
2023/07/07 08:14:18;;;;;;;2.83;0.98;;;19.70;99.90;;;;;;5137525;27;20054;-68
2023/07/07 08:16:45;;;;;;;0.10;0.10;;;19.80;99.90;;;;;;5131497;27;20509;-67
2023/07/07 08:19:11;;;;;;;0.05;0.05;;;19.80;99.90;;;;;;5122712;27;20712;-67
2023/07/07 08:21:37;;;;;;;0.03;0.03;;;19.90;99.90;;;;;;5129701;27;20119;-67
2023/07/07 08:24:03;;;;;;;0.25;0.17;;;20.00;99.90;;;;;;5135087;27;20053;-67
2023/07/07 08:26:29;;;;;;;0.00;0.00;;;20.10;99.90;;;;;;5125569;27;20333;-67
2023/07/07 08:28:54;;;;;;;0.00;0.00;;;20.10;99.90;;;;;;5147566;27;20121;-67
2023/07/07 08:31:20;;;;;;;0.00;0.00;;;20.30;99.90;;;;;;5146138;27;20067;-67
2023/07/07 08:33:47;;;;;;;0.20;0.20;;;20.30;99.90;;;;;;5146476;27;20045;-67
2023/07/07 08:36:13;;;;;;;0.00;0.00;;;20.40;99.90;;;;;;5148592;27;20049;-67
2023/07/07 08:38:38;;;;;;;0.20;0.20;;;20.50;99.90;;;;;;5140192;27;20027;-67
2023/07/07 08:41:04;;;;;;;0.10;0.10;;;20.60;99.90;;;;;;5127816;27;20468;-67
2023/07/07 08:43:30;;;;;;;1.35;0.80;;;20.70;99.90;;;;;;5149077;27;20722;-67
2023/07/07 08:46:25;;;;;;;0.08;0.08;;;20.70;99.90;;;;;;5146999;27;20038;-67
2023/07/07 08:49:43;;;;;;;0.15;0.15;;;20.70;99.90;;;;;;5117256;27;20047;-67
2023/07/07 08:52:33;;;;;;;0.10;0.10;;;20.80;99.90;;;;;;5081208;28;20039;-67
2023/07/07 08:55:23;;;;;;;0.00;0.00;;;20.90;99.90;;;;;;5143912;27;20050;-67
2023/07/07 08:57:57;;;;;;;1.23;1.13;;;20.90;99.90;;;;;;5138527;27;20045;-66
2023/07/07 09:00:46;;;;;;;0.00;0.00;;;21.00;99.90;;;;;;5149300;27;20053;-67
2023/07/07 09:03:22;;;;;;;0.38;0.38;;;21.00;99.90;;;;;;5137257;27;20055;-66
2023/07/07 09:06:08;;;;;;;0.05;0.05;;;21.10;99.90;;;;;;5118542;27;20043;-66
2023/07/07 09:08:45;;;;;;;0.28;0.28;;;21.20;99.90;;;;;;5145277;27;20039;-67
2023/07/07 09:11:52;;;;;;;0.10;0.10;;;21.30;99.90;;;;;;5145849;27;20051;-66
2023/07/07 09:14:18;;;;;;;0.15;0.15;;;21.30;99.90;;;;;;5145801;27;20552;-66
2023/07/07 09:16:46;;;;;;;0.30;0.22;;;21.40;99.90;;;;;;5131853;27;20039;-66
2023/07/07 09:19:33;;;;;;;0.00;0.00;;;21.50;99.90;;;;;;5145248;27;20447;-67
2023/07/07 09:22:30;;;;;;;2.03;0.43;;;21.60;99.90;;;;;;5141163;27;20078;-67
2023/07/07 09:25:16;;;;;;;0.57;0.55;;;21.60;99.90;;;;;;5127400;27;20050;-67
2023/07/07 09:27:49;;;;;;;0.00;0.00;;;21.60;99.90;;;;;;5142651;27;20092;-67
2023/07/07 09:30:34;;;;;;;0.20;0.20;;;21.70;99.90;;;;;;5149112;27;20065;-67
2023/07/07 09:33:00;;;;;;;0.20;0.20;;;21.90;99.90;;;;;;5110657;27;1077290;-66
2023/07/07 09:35:31;;;;;;;0.00;0.00;;;21.90;99.90;;;;;;5143004;27;20059;-67
2023/07/07 09:38:34;;;;;;;0.00;0.00;;;22.00;99.90;;;;;;5138594;27;20039;-67
2023/07/07 09:41:18;;;;;;;0.80;0.70;;;22.00;99.90;;;;;;5145458;27;20046;-67
2023/07/07 09:43:59;;;;;;;0.25;0.20;;;22.10;99.90;;;;;;5144745;27;20037;-67
2023/07/07 09:46:32;;;;;;;0.13;0.13;;;22.10;99.90;;;;;;5148588;27;20541;-67
2023/07/07 09:49:10;;;;;;;0.00;0.00;;;22.40;99.90;;;;;;5142374;27;20031;-67
2023/07/07 09:52:08;;;;;;;0.15;0.15;;;22.80;99.90;;;;;;5149483;27;20061;-67
2023/07/07 09:54:35;;;;;;;0.10;0.10;;;23.10;99.90;;;;;;5146305;27;20034;-67
2023/07/07 09:57:05;;;;;;;0.13;0.10;;;23.60;99.90;;;;;;5135048;27;20048;-67
2023/07/07 09:59:38;;;;;;;0.10;0.10;;;23.90;99.90;;;;;;5140827;27;20043;-67
2023/07/07 10:02:10;;;;;;;;;;;24.10;99.90;;;;;;5143607;27;20075;-67
2023/07/07 10:04:37;;;;;;;2.33;0.40;;;24.30;99.90;;;;;;5118858;27;19919;-67
2023/07/07 10:07:07;;;;;;;0.00;0.00;;;24.40;99.90;;;;;;5145096;27;20486;-67
2023/07/07 10:09:33;;;;;;;0.00;0.00;;;24.50;99.90;;;;;;5121414;27;20405;-66
2023/07/07 10:11:59;;;;;;;0.00;0.00;;;24.50;99.90;;;;;;5137258;27;20046;-67
2023/07/07 10:14:28;;;;;;;0.00;0.00;;;24.50;98.70;;;;;;5149895;27;20063;-67
2023/07/07 10:17:09;;;;;;;0.00;0.00;;;24.70;99.50;;;;;;5134794;27;20524;-67
2023/07/07 10:19:49;;;;;;;0.00;0.00;;;24.60;98.70;;;;;;5131291;27;20042;-67
2023/07/07 10:22:15;;;;;;;0.20;0.20;;;24.70;99.20;;;;;;5141192;27;20040;-67
2023/07/07 10:24:44;;;;;;;0.00;0.00;;;24.80;99.90;;;;;;5143706;27;20061;-68
2023/07/07 10:27:17;;;;;;;0.30;0.30;;;24.80;98.60;;;;;;5147919;27;20452;-67
2023/07/07 10:29:45;;;;;;;0.35;0.08;;;24.90;98.70;;;;;;5129539;27;20590;-67
2023/07/07 10:32:14;;;;;;;0.00;0.00;;;25.00;98.70;;;;;;5145091;27;20070;-67
2023/07/07 10:34:47;;;;;;;0.03;0.03;;;25.10;99.50;;;;;;5151502;27;20047;-67
2023/07/07 10:37:20;;;;;;;0.00;0.00;;;25.10;99.20;;;;;;5148824;27;20092;-66
2023/07/07 10:39:53;;;;;;;0.00;0.00;;;25.20;99.50;;;;;;5141470;27;20522;-67
2023/07/07 10:42:23;;;;;;;0.00;0.00;;;25.30;99.90;;;;;;5145860;27;20587;-67
2023/07/07 10:44:57;;;;;;;0.00;0.00;;;25.40;99.90;;;;;;5143605;27;20043;-67
2023/07/07 10:47:28;;;;;;;0.00;0.00;;;25.70;99.80;;;;;;5148203;27;20066;-67
2023/07/07 10:49:56;;;;;;;0.00;0.00;;;25.80;99.20;;;;;;5152378;27;20043;-67
2023/07/07 10:52:49;;;;;;;0.00;0.00;;;25.70;98.00;;;;;;5142248;27;20127;-67
2023/07/07 10:55:31;;;;;;;0.17;0.17;;;25.70;99.90;;;;;;5141164;27;20039;-67
2023/07/07 10:58:17;;;;;;;0.15;0.15;;;25.70;99.90;;;;;;5122711;27;20367;-67
2023/07/07 11:00:56;;;;;;;0.98;0.40;;;25.70;98.70;;;;;;5133000;27;20059;-67
2023/07/07 11:03:49;;;;;;;0.63;0.35;;;25.60;97.80;;;;;;5153230;27;20062;-67
2023/07/07 11:06:44;;;;;;;2.33;0.65;;;25.60;98.40;;;;;;5151403;27;20047;-67
2023/07/07 11:09:40;;;;;;;0.00;0.00;;;25.80;98.70;;;;;;5138279;27;20043;-67
2023/07/07 11:12:28;;;;;;;0.10;0.10;;;25.80;99.00;;;;;;5143210;27;20062;-67
2023/07/07 11:15:18;;;;;;;0.03;0.03;;;26.00;99.00;;;;;;5148341;27;20031;-67
2023/07/07 11:17:59;;;;;;;0.35;0.20;;;26.20;99.70;;;;;;5126042;27;20047;-67
2023/07/07 11:20:43;;;;;;;0.00;0.00;;;26.40;98.30;;;;;;5145270;27;20390;-67
2023/07/07 11:23:51;;;;;;;0.00;0.00;;;26.40;99.20;;;;;;5143634;27;20123;-67
2023/07/07 11:26:23;;;;;;;0.00;0.00;;;26.50;99.80;;;;;;5123683;27;20053;-67
2023/07/07 11:29:11;;;;;;;0.10;0.10;;;26.60;98.70;;;;;;5147880;27;20038;-68
2023/07/07 11:32:12;;;;;;;0.00;0.00;;;26.70;97.80;;;;;;5143018;27;20091;-67
2023/07/07 11:35:03;;;;;;;0.00;0.00;;;26.90;98.10;;;;;;5133428;27;20087;-67
2023/07/07 11:38:13;;;;;;;0.00;0.00;;;26.90;97.30;;;;;;5144708;27;20046;-67
2023/07/07 11:40:59;;;;;;;0.00;0.00;;;27.10;97.90;;;;;;5137801;27;20117;-67
2023/07/07 11:43:43;;;;;;;0.00;0.00;;;27.40;98.00;;;;;;5148986;27;20038;-67
2023/07/07 11:46:38;;;;;;;0.20;0.05;;;27.40;95.80;;;;;;5144954;27;20042;-67
2023/07/07 11:49:29;;;;;;;0.10;0.08;;;27.60;97.10;;;;;;5147106;27;20034;-67
2023/07/07 11:52:48;;;;;;;1.60;0.45;;;27.60;96.40;;;;;;5120977;27;20109;-67
2023/07/07 11:55:37;;;;;;;0.00;0.00;;;27.70;96.80;;;;;;5056468;28;20620;-67
2023/07/07 11:58:21;;;;;;;0.00;0.00;;;27.70;96.30;;;;;;5137808;27;20045;-67
2023/07/07 12:01:31;;;;;;;0.00;0.00;;;27.70;96.10;;;;;;5151101;27;20039;-67
2023/07/07 12:04:25;;;;;;;0.00;0.00;;;27.90;97.20;;;;;;5129852;27;20046;-67
2023/07/07 12:06:57;;;;;;;0.00;0.00;;;28.20;96.60;;;;;;5150310;27;20053;-68
2023/07/07 12:09:37;;;;;;;0.10;0.10;;;28.10;96.00;;;;;;5138234;27;20050;-67
2023/07/07 12:12:17;;;;;;;3.75;0.70;;;28.40;96.00;;;;;;5143028;27;20039;-67
2023/07/07 12:15:02;;;;;;;0.00;0.00;;;28.60;97.10;;;;;;5129611;27;20049;-67
2023/07/07 12:17:40;;;;;;;0.00;0.00;;;28.60;96.00;;;;;;5140300;27;20050;-67
2023/07/07 12:20:14;;;;;;;0.00;0.00;;;28.60;95.90;;;;;;5144577;27;20043;-67
2023/07/07 12:22:40;;;;;;;0.57;0.43;;;28.70;96.40;;;;;;5133557;27;20062;-67
2023/07/07 12:25:15;;;;;;;0.00;0.00;;;28.90;96.80;;;;;;5145594;27;20237;-67
2023/07/07 12:27:44;;;;;;;0.10;0.10;;;28.90;95.60;;;;;;5151501;27;20042;-67
2023/07/07 12:30:30;;;;;;;0.00;0.00;;;29.10;95.50;;;;;;5136096;27;20487;-67
2023/07/07 12:32:57;;;;;;;0.05;0.00;;;29.10;96.80;;;;;;5147896;27;20383;-67
2023/07/07 12:35:44;;;;;;;0.00;0.00;;;29.30;96.80;;;;;;5141576;27;20130;-67
2023/07/07 12:38:31;;;;;;;0.00;0.00;;;29.30;95.80;;;;;;5145959;27;20057;-67
2023/07/07 12:41:04;;;;;;;0.00;0.00;;;29.30;95.40;;;;;;5139586;27;20039;-67
2023/07/07 12:43:31;;;;;;;0.30;0.30;;;29.50;95.50;;;;;;5149931;27;20545;-68
2023/07/07 12:45:57;;;;;;;2.33;2.15;;;29.50;94.60;;;;;;5144032;27;20439;-67
2023/07/07 12:48:26;;;;;;;0.00;0.00;;;29.60;95.30;;;;;;5122507;27;20078;-67
2023/07/07 12:51:01;;;;;;;0.10;0.10;;;29.80;95.30;;;;;;5148343;27;20491;-68
2023/07/07 12:53:32;;;;;;;3.63;0.52;;;29.80;95.90;;;;;;5140525;27;20050;-68
2023/07/07 12:56:06;;;;;;;0.10;0.08;;;29.60;93.70;;;;;;5141929;27;20068;-67
2023/07/07 12:58:48;;;;;;;0.52;0.45;;;29.80;94.50;;;;;;5149726;27;20042;-67
2023/07/07 13:01:14;;;;;;;0.00;0.00;;;29.90;94.70;;;;;;5140578;27;20043;-67
2023/07/07 13:04:01;;;;;;;0.00;0.00;;;29.90;94.60;;;;;;5146643;27;20516;-67
2023/07/07 13:06:36;;;;;;;0.77;0.22;;;30.00;93.80;;;;;;5145190;27;20043;-67
2023/07/07 13:09:16;;;;;;;0.10;0.10;;;29.80;94.40;;;;;;5143719;27;20039;-68
2023/07/07 13:11:48;;;;;;;0.00;0.00;;;30.00;93.20;;;;;;5125015;27;20133;-68